aviador You're here:

LDDU Decoded Metar

DUBROVNIK in CROATIA
Report Time2017-08-21 13:30:00
UTC Time2017-08-21 13:50:50
Flight Rules vfr VFR
Wind250° at 09 kt
W.Decomp.*RWY 30: 5.4 kt HW 7.2 kt LCW
W.Rank250° ranks 27
Current wind is above 250° avg. (6.4)
Visibility9999 m
Phenomena:N/A
Clouds:N/A
Expected CloudBase > 6,800 ft AGL from Temp-Dew spread
CeilingNone
Temp29°C (ISA +15)
Dew Point12°C (35% RH)
Heat Index28.2°C
AAT26.4°C
QNH1012 hPa
Density Alt2,493 ft
Elevation541 ft
Report Wrong Elevation
Raw Report
LDDU 211330Z 25009KT 200V320 CAVOK 29/12 Q1012 BECMG 30012KT=

Extra information for LDDU:More info

Metar Taf Metar & Taf Last 4 Metars F.Rules Stats Wind Profile Meteogram Temp Stats Airport Information Weather charts Add Link Nearby VenuesMetar ALERT Operation Metar Decoded Social comments